Time;durP1;ratioP1;P1;durP2;ratioP2;P2;SDS_P1;SDS_P2;PMS_P1;PMS_P2;Temp;Humidity;BMP_temperature;BMP_pressure;BME280_temperature;BME280_humidity;BME280_pressure;Samples;Min_cycle;Max_cycle;Signal;HPM_P1;HPM_P2
2022/07/27 00:01:46;;;;;;;7.68;5.22;;;15.80;99.90;;;;;;5020927;28;20027;-87
2022/07/27 00:04:12;;;;;;;9.98;5.75;;;15.80;99.90;;;;;;5025654;28;20094;-87
2022/07/27 00:06:38;;;;;;;7.78;4.85;;;15.80;99.90;;;;;;5030145;28;20037;-88
2022/07/27 00:09:03;;;;;;;13.43;5.95;;;15.70;99.90;;;;;;5025647;28;20037;-87
2022/07/27 00:11:37;;;;;;;7.90;5.70;;;15.70;99.90;;;;;;5010029;28;20402;-85
2022/07/27 00:14:02;;;;;;;8.95;5.05;;;15.70;99.90;;;;;;5007316;28;20034;-85
2022/07/27 00:16:28;;;;;;;7.70;5.63;;;15.60;99.90;;;;;;5003690;28;20038;-85
2022/07/27 00:18:54;;;;;;;8.55;5.78;;;15.60;99.90;;;;;;5001365;28;20030;-85
2022/07/27 00:21:19;;;;;;;6.43;5.80;;;15.50;99.90;;;;;;5010776;28;20081;-87
2022/07/27 00:23:45;;;;;;;14.68;5.93;;;15.60;99.90;;;;;;5009207;28;20042;-86
2022/07/27 00:26:17;;;;;;;6.60;5.47;;;15.70;99.90;;;;;;5004340;28;20038;-84
2022/07/27 00:28:43;;;;;;;8.05;5.75;;;15.60;99.90;;;;;;5009673;28;20034;-84
2022/07/27 00:31:08;;;;;;;10.05;5.72;;;15.60;99.90;;;;;;5012557;28;20087;-85
2022/07/27 00:33:34;;;;;;;10.68;6.70;;;15.50;99.90;;;;;;5011930;28;20063;-85
2022/07/27 00:36:01;;;;;;;9.57;5.50;;;15.50;99.90;;;;;;5013449;28;20034;-85
2022/07/27 00:38:34;;;;;;;9.25;5.72;;;15.50;99.90;;;;;;5028269;28;20045;-86
2022/07/27 00:41:00;;;;;;;10.82;5.93;;;15.50;99.90;;;;;;5012885;28;20125;-86
2022/07/27 00:43:26;;;;;;;11.45;5.82;;;15.40;99.90;;;;;;5012318;28;20121;-85
2022/07/27 00:45:52;;;;;;;7.72;6.35;;;15.40;99.90;;;;;;5012718;28;20066;-86
2022/07/27 00:48:18;;;;;;;8.85;5.85;;;15.40;99.90;;;;;;5006484;28;20025;-86
2022/07/27 00:50:53;;;;;;;8.38;5.65;;;15.40;99.90;;;;;;5011097;28;20764;-85
2022/07/27 00:53:19;;;;;;;9.20;6.55;;;15.40;99.90;;;;;;4987825;28;20030;-85
2022/07/27 00:55:45;;;;;;;10.35;6.05;;;15.50;99.90;;;;;;5008646;28;20692;-85
2022/07/27 00:58:11;;;;;;;10.77;6.07;;;15.50;99.90;;;;;;5004880;28;20273;-86
2022/07/27 01:00:37;;;;;;;8.85;5.90;;;15.60;99.90;;;;;;5005084;28;20034;-86
2022/07/27 01:03:10;;;;;;;8.38;5.60;;;15.70;99.90;;;;;;5010920;28;20033;-86
2022/07/27 01:05:37;;;;;;;8.15;5.47;;;15.90;99.90;;;;;;5012663;28;20171;-86
2022/07/27 01:08:05;;;;;;;11.82;6.18;;;15.90;99.90;;;;;;4994567;28;20045;-86
2022/07/27 01:10:32;;;;;;;8.45;5.38;;;15.90;99.90;;;;;;5012907;28;20388;-85
2022/07/27 01:12:58;;;;;;;8.10;5.80;;;16.00;99.90;;;;;;4996074;28;20089;-86
2022/07/27 01:15:29;;;;;;;6.60;5.95;;;16.00;99.90;;;;;;5011503;28;20454;-86
2022/07/27 01:17:55;;;;;;;;;;;16.00;99.90;;;;;;5014180;28;20044;-86
2022/07/27 01:20:21;;;;;;;7.32;5.55;;;16.10;99.90;;;;;;5006596;28;19913;-86
2022/07/27 01:22:47;;;;;;;9.77;5.82;;;16.10;99.90;;;;;;5006440;28;20045;-85
2022/07/27 01:25:13;;;;;;;9.38;5.60;;;16.10;99.90;;;;;;5005729;28;20057;-85
2022/07/27 01:27:48;;;;;;;8.77;5.70;;;16.10;99.90;;;;;;5013074;28;20471;-85
2022/07/27 01:30:26;;;;;;;9.13;6.15;;;16.00;99.90;;;;;;5013705;28;20041;-86
2022/07/27 01:33:05;;;;;;;12.35;7.38;;;16.00;99.90;;;;;;5006013;28;20072;-85
2022/07/27 01:35:32;;;;;;;7.70;6.07;;;16.00;99.90;;;;;;5013248;28;20044;-85
2022/07/27 01:37:58;;;;;;;11.32;6.30;;;16.00;99.90;;;;;;5016864;28;20550;-86
2022/07/27 01:40:24;;;;;;;11.63;6.38;;;16.00;99.90;;;;;;5028318;28;20042;-86
2022/07/27 01:42:50;;;;;;;10.30;6.50;;;16.00;99.90;;;;;;4991922;28;20049;-86
2022/07/27 01:45:25;;;;;;;11.00;6.35;;;16.00;99.90;;;;;;5006216;28;20430;-86
2022/07/27 01:47:50;;;;;;;8.38;6.70;;;15.90;99.90;;;;;;5011982;28;20038;-87
2022/07/27 01:50:16;;;;;;;12.23;6.35;;;15.90;99.90;;;;;;5012826;28;20029;-86
2022/07/27 01:52:42;;;;;;;9.15;6.45;;;16.00;99.90;;;;;;4992092;28;20113;-86
2022/07/27 01:55:09;;;;;;;9.25;6.40;;;15.90;99.90;;;;;;4998311;28;20026;-85
2022/07/27 01:57:41;;;;;;;8.68;6.47;;;15.90;99.90;;;;;;5012046;28;20154;-85
2022/07/27 02:00:10;;;;;;;9.40;6.63;;;15.90;99.90;;;;;;5012605;28;20064;-87
2022/07/27 02:02:39;;;;;;;;;;;15.90;99.90;;;;;;5005728;28;20721;-87
2022/07/27 02:05:06;;;;;;;10.02;8.05;;;15.80;99.90;;;;;;5010172;28;19919;-86
2022/07/27 02:07:49;;;;;;;8.65;7.30;;;15.80;99.90;;;;;;5006871;28;20663;-86
2022/07/27 02:10:15;;;;;;;9.73;6.93;;;15.80;99.90;;;;;;5007177;28;20116;-87
2022/07/27 02:12:41;;;;;;;12.55;8.25;;;15.80;99.90;;;;;;4983115;28;20134;-86
2022/07/27 02:15:19;;;;;;;9.95;7.03;;;15.80;99.90;;;;;;5012210;28;20056;-87
2022/07/27 02:17:45;;;;;;;12.05;7.55;;;15.90;99.90;;;;;;5005620;28;20051;-86
2022/07/27 02:20:14;;;;;;;9.60;7.78;;;15.90;99.90;;;;;;4995515;28;20128;-86
2022/07/27 02:22:40;;;;;;;13.85;7.50;;;16.00;99.90;;;;;;5015690;28;20068;-86
2022/07/27 02:25:17;;;;;;;12.02;8.23;;;16.00;99.90;;;;;;5014912;28;20073;-87
2022/07/27 02:27:44;;;;;;;10.35;8.25;;;16.00;99.90;;;;;;5014905;28;20048;-86
2022/07/27 02:30:11;;;;;;;16.90;7.38;;;16.00;99.90;;;;;;5036790;28;20155;-85
2022/07/27 02:32:39;;;;;;;9.20;8.13;;;16.00;99.90;;;;;;5009244;28;20418;-86
2022/07/27 02:35:14;;;;;;;17.88;8.07;;;16.00;99.90;;;;;;5010928;28;20080;-88
2022/07/27 02:37:39;;;;;;;14.95;8.52;;;16.00;99.90;;;;;;5008251;28;20074;-87
2022/07/27 02:40:06;;;;;;;9.65;7.45;;;16.10;99.90;;;;;;5021064;28;20025;-90
2022/07/27 02:42:31;;;;;;;12.48;7.30;;;16.10;99.90;;;;;;5010516;28;20415;-87
2022/07/27 02:44:57;;;;;;;10.35;8.15;;;16.00;99.90;;;;;;5009902;28;20041;-86
2022/07/27 02:47:32;;;;;;;8.25;7.15;;;16.00;99.90;;;;;;5011464;28;20076;-85
2022/07/27 02:49:57;;;;;;;11.98;8.65;;;15.90;99.90;;;;;;5011443;28;20076;-87
2022/07/27 02:52:23;;;;;;;9.48;7.65;;;15.80;99.90;;;;;;5004066;28;20049;-86
2022/07/27 02:54:49;;;;;;;10.10;7.85;;;15.80;99.90;;;;;;5009305;28;20030;-87
2022/07/27 02:57:14;;;;;;;11.93;8.45;;;15.70;99.90;;;;;;4999208;28;20097;-86
2022/07/27 02:59:48;;;;;;;11.98;7.70;;;15.70;99.90;;;;;;5011589;28;20080;-87
2022/07/27 03:02:14;;;;;;;11.52;7.95;;;15.70;99.90;;;;;;4997657;28;20049;-89
2022/07/27 03:04:40;;;;;;;11.57;8.95;;;15.70;99.90;;;;;;5011259;28;20026;-85
2022/07/27 03:07:06;;;;;;;13.00;8.65;;;15.60;99.90;;;;;;5005544;28;20045;-87
2022/07/27 03:09:32;;;;;;;8.35;7.47;;;15.60;99.90;;;;;;5030019;28;20046;-87
2022/07/27 03:12:03;;;;;;;12.68;8.48;;;15.60;99.90;;;;;;5026028;28;20042;-88
2022/07/27 03:14:29;;;;;;;;;;;15.70;99.90;;;;;;5018818;28;20049;-85
2022/07/27 03:16:54;;;;;;;12.35;8.05;;;15.70;99.90;;;;;;5014245;28;20338;-84
2022/07/27 03:19:20;;;;;;;11.02;7.68;;;15.70;99.90;;;;;;5025534;28;20041;-84
2022/07/27 03:21:46;;;;;;;17.77;8.75;;;15.80;99.90;;;;;;5015746;28;20088;-84
2022/07/27 03:24:12;;;;;;;18.00;8.10;;;15.80;99.90;;;;;;5010120;28;20034;-85
2022/07/27 03:26:38;;;;;;;9.13;7.97;;;15.80;99.90;;;;;;5011870;28;20029;-85
2022/07/27 03:29:13;;;;;;;9.25;8.35;;;15.80;99.90;;;;;;5012963;28;20022;-86
2022/07/27 03:31:38;;;;;;;12.35;7.57;;;15.90;99.90;;;;;;5014233;28;20172;-85
2022/07/27 03:34:04;;;;;;;10.13;7.20;;;15.90;99.90;;;;;;5012150;28;20026;-84
2022/07/27 03:36:30;;;;;;;12.82;7.32;;;15.90;99.90;;;;;;5012034;28;20029;-85
2022/07/27 03:39:00;;;;;;;9.98;7.13;;;15.90;99.90;;;;;;4997918;28;20030;-86
2022/07/27 03:41:26;;;;;;;13.67;8.07;;;15.90;99.90;;;;;;5006908;28;20042;-85
2022/07/27 03:43:52;;;;;;;8.90;6.53;;;15.90;99.90;;;;;;5008826;28;20335;-84
2022/07/27 03:46:17;;;;;;;12.05;7.03;;;15.90;99.90;;;;;;5007884;28;20022;-84
2022/07/27 03:48:43;;;;;;;14.85;7.22;;;15.90;99.90;;;;;;5008133;28;20018;-85
2022/07/27 03:51:09;;;;;;;11.68;7.50;;;15.90;99.90;;;;;;4983709;28;20034;-85
2022/07/27 03:53:37;;;;;;;9.02;7.35;;;15.90;99.90;;;;;;4988826;28;20029;-84
2022/07/27 03:56:05;;;;;;;8.55;7.18;;;15.80;99.90;;;;;;4993790;28;20049;-84
2022/07/27 03:58:31;;;;;;;13.40;7.45;;;15.70;99.90;;;;;;4990283;28;20490;-84
2022/07/27 04:00:57;;;;;;;14.40;8.25;;;15.60;99.90;;;;;;5009910;28;20041;-84
2022/07/27 04:03:23;;;;;;;10.32;7.72;;;15.60;99.90;;;;;;5008934;28;20034;-85
2022/07/27 04:05:49;;;;;;;11.70;8.38;;;15.60;99.90;;;;;;5011040;28;20034;-85
2022/07/27 04:08:16;;;;;;;9.90;7.60;;;15.60;99.90;;;;;;5013348;28;20076;-85
2022/07/27 04:10:44;;;;;;;9.77;7.25;;;15.60;99.90;;;;;;5012134;28;20076;-84
2022/07/27 04:13:11;;;;;;;14.00;7.40;;;15.60;99.90;;;;;;5011431;28;20134;-85
2022/07/27 04:15:37;;;;;;;10.35;6.50;;;15.60;99.90;;;;;;4991197;28;20037;-84
2022/07/27 04:18:03;;;;;;;10.88;7.03;;;15.60;99.90;;;;;;4991314;28;20038;-86
2022/07/27 04:20:29;;;;;;;9.75;7.55;;;15.60;99.90;;;;;;4995483;28;20045;-84
2022/07/27 04:22:57;;;;;;;10.32;7.20;;;15.60;99.90;;;;;;5010734;28;20037;-84
2022/07/27 04:25:23;;;;;;;11.73;7.47;;;15.60;99.90;;;;;;5021251;28;20045;-85
2022/07/27 04:27:49;;;;;;;13.60;7.63;;;15.70;99.90;;;;;;5011556;28;20038;-85
2022/07/27 04:30:15;;;;;;;9.40;6.88;;;15.70;99.90;;;;;;5004576;28;20049;-85
2022/07/27 04:32:40;;;;;;;8.68;7.07;;;15.80;99.90;;;;;;5010491;28;20026;-83
2022/07/27 04:35:07;;;;;;;10.25;6.88;;;15.70;99.90;;;;;;5006527;28;20034;-85
2022/07/27 04:37:40;;;;;;;12.65;6.68;;;15.80;99.90;;;;;;5011912;28;20041;-86
2022/07/27 04:40:07;;;;;;;9.80;6.95;;;15.70;99.90;;;;;;5012971;28;20033;-85
2022/07/27 04:42:33;;;;;;;8.48;6.28;;;15.80;99.90;;;;;;5005144;28;20041;-84
2022/07/27 04:44:58;;;;;;;8.63;6.53;;;15.70;99.90;;;;;;4999816;28;20399;-85
2022/07/27 04:47:25;;;;;;;10.07;6.72;;;15.70;99.90;;;;;;4993344;28;20030;-84
2022/07/27 04:49:58;;;;;;;7.38;6.20;;;15.60;99.90;;;;;;4991904;28;20062;-85
2022/07/27 04:52:23;;;;;;;12.45;6.97;;;15.60;99.90;;;;;;5011705;28;20368;-85
2022/07/27 04:54:52;;;;;;;8.93;6.38;;;15.60;99.90;;;;;;5010297;28;20026;-85
2022/07/27 04:57:18;;;;;;;9.82;6.05;;;15.60;99.90;;;;;;5012243;28;20065;-84
2022/07/27 04:59:44;;;;;;;11.48;6.32;;;15.70;99.90;;;;;;5007158;28;20023;-85
2022/07/27 05:02:13;;;;;;;6.53;5.93;;;15.70;99.90;;;;;;4993479;28;20144;-84
2022/07/27 05:04:38;;;;;;;9.02;5.22;;;15.70;99.90;;;;;;5013372;28;20030;-85
2022/07/27 05:07:04;;;;;;;7.70;5.78;;;15.80;99.90;;;;;;5013515;28;20038;-85
2022/07/27 05:09:30;;;;;;;6.78;5.90;;;15.80;99.90;;;;;;4991509;28;20088;-84
2022/07/27 05:11:55;;;;;;;6.72;5.65;;;15.90;99.90;;;;;;5013760;28;20030;-85
2022/07/27 05:14:22;;;;;;;8.05;5.80;;;16.00;99.90;;;;;;4997847;28;20038;-85
2022/07/27 05:16:52;;;;;;;6.55;5.85;;;16.10;99.90;;;;;;5015145;28;20038;-86
2022/07/27 05:19:18;;;;;;;5.90;5.20;;;16.10;99.90;;;;;;5014420;28;20040;-85
2022/07/27 05:21:44;;;;;;;7.13;5.68;;;16.10;99.90;;;;;;5014504;28;20140;-85
2022/07/27 05:24:10;;;;;;;8.55;5.63;;;16.20;99.90;;;;;;5016134;28;20037;-85
2022/07/27 05:26:37;;;;;;;6.25;5.65;;;16.10;99.90;;;;;;4997833;28;20034;-85
2022/07/27 05:29:02;;;;;;;9.35;6.07;;;16.20;99.90;;;;;;5016092;28;20103;-85
2022/07/27 05:31:35;;;;;;;5.97;4.75;;;16.20;99.90;;;;;;5009510;28;20090;-85
2022/07/27 05:34:01;;;;;;;5.82;5.00;;;16.30;99.90;;;;;;5016866;28;20291;-86
2022/07/27 05:36:27;;;;;;;5.50;3.78;;;16.30;99.90;;;;;;5015880;28;20038;-84
2022/07/27 05:38:53;;;;;;;5.15;4.65;;;16.40;99.90;;;;;;5016829;28;20705;-85
2022/07/27 05:41:28;;;;;;;4.15;3.75;;;16.50;99.90;;;;;;5026420;28;20018;-87
2022/07/27 05:43:54;;;;;;;5.65;3.92;;;16.60;99.90;;;;;;5012369;28;20088;-84
2022/07/27 05:46:20;;;;;;;9.13;4.28;;;16.60;99.90;;;;;;5009495;28;20034;-84
2022/07/27 05:48:46;;;;;;;6.85;3.83;;;16.80;99.90;;;;;;5007855;28;20034;-85
2022/07/27 05:51:12;;;;;;;3.50;3.20;;;16.90;99.90;;;;;;5023127;28;20030;-85
2022/07/27 05:53:38;;;;;;;4.97;3.30;;;17.00;99.90;;;;;;5013283;28;20033;-85
2022/07/27 05:56:11;;;;;;;4.38;3.58;;;17.20;99.90;;;;;;5013071;28;20038;-85
2022/07/27 05:58:37;;;;;;;3.47;3.17;;;17.10;99.90;;;;;;5014829;28;20037;-85
2022/07/27 06:01:03;;;;;;;4.25;3.55;;;17.10;99.90;;;;;;5006336;28;20756;-85
2022/07/27 06:03:29;;;;;;;5.55;3.50;;;17.20;99.90;;;;;;5014168;28;20041;-85
2022/07/27 06:07:57;;;;;;;7.88;3.67;;;17.30;99.90;;;;;;5013944;28;20037;-85
2022/07/27 06:08:41;;;;;;;3.97;3.10;;;17.40;99.90;;;;;;5014553;28;20073;-87
2022/07/27 06:11:07;;;;;;;3.42;3.10;;;17.40;99.90;;;;;;5015465;28;20026;-86
2022/07/27 06:13:35;;;;;;;4.63;3.22;;;17.50;99.90;;;;;;4996995;28;20035;-86
2022/07/27 06:16:03;;;;;;;4.25;2.92;;;17.60;99.90;;;;;;5016018;28;20096;-87
2022/07/27 06:18:29;;;;;;;4.38;2.75;;;17.80;99.90;;;;;;5015836;28;20040;-86
2022/07/27 06:20:55;;;;;;;3.28;2.80;;;18.00;99.90;;;;;;5015923;28;20137;-85
2022/07/27 06:23:21;;;;;;;4.57;2.72;;;18.50;99.90;;;;;;5013539;28;20046;-85
2022/07/27 06:25:46;;;;;;;4.85;3.15;;;18.70;99.90;;;;;;5014397;28;20038;-85
2022/07/27 06:28:12;;;;;;;3.55;2.70;;;19.00;99.90;;;;;;5013894;28;20767;-86
2022/07/27 06:30:47;;;;;;;4.63;2.90;;;19.20;99.90;;;;;;5013761;28;20030;-86
2022/07/27 06:33:13;;;;;;;5.28;2.65;;;19.20;99.90;;;;;;5013417;28;20033;-85
2022/07/27 06:35:39;;;;;;;3.05;2.70;;;19.10;99.90;;;;;;4994842;28;20484;-86
2022/07/27 06:38:06;;;;;;;7.50;3.22;;;19.10;99.90;;;;;;5007723;28;20168;-86
2022/07/27 06:40:32;;;;;;;4.43;3.03;;;19.20;99.90;;;;;;5013410;28;20486;-85
2022/07/27 06:43:05;;;;;;;10.30;3.15;;;19.10;99.90;;;;;;4997247;28;20041;-86
2022/07/27 06:45:31;;;;;;;4.80;3.05;;;19.10;99.90;;;;;;5015353;28;20089;-86
2022/07/27 06:47:57;;;;;;;4.82;3.00;;;19.20;99.90;;;;;;5013574;28;20731;-85
2022/07/27 06:50:22;;;;;;;5.97;3.03;;;19.20;99.90;;;;;;5012255;28;20185;-86
2022/07/27 06:52:48;;;;;;;3.60;3.28;;;19.30;99.90;;;;;;4995392;28;20306;-85
2022/07/27 06:55:14;;;;;;;4.72;3.20;;;19.20;99.90;;;;;;5013294;28;20038;-85
2022/07/27 06:57:45;;;;;;;4.03;3.40;;;19.10;99.90;;;;;;5012068;28;20038;-85
2022/07/27 07:00:13;;;;;;;3.78;3.03;;;19.10;99.90;;;;;;5029356;28;20201;-87
2022/07/27 07:02:51;;;;;;;5.60;2.97;;;19.20;99.90;;;;;;5012188;28;20077;-85
2022/07/27 07:05:24;;;;;;;6.47;2.92;;;19.50;99.90;;;;;;5011745;28;20037;-85
2022/07/27 07:07:51;;;;;;;6.07;3.03;;;19.90;99.90;;;;;;4992934;28;20030;-85
2022/07/27 07:10:17;;;;;;;3.10;2.63;;;19.90;99.90;;;;;;5012345;28;20022;-86
2022/07/27 07:12:42;;;;;;;3.40;2.50;;;19.90;99.90;;;;;;5011286;28;20471;-85
2022/07/27 07:15:09;;;;;;;7.20;2.85;;;19.60;99.90;;;;;;5028185;28;20121;-86
2022/07/27 07:17:37;;;;;;;3.25;2.53;;;19.30;99.90;;;;;;5004987;28;20026;-85
2022/07/27 07:20:05;;;;;;;9.07;2.80;;;19.40;99.90;;;;;;5011847;28;20040;-85
2022/07/27 07:22:33;;;;;;;3.78;2.47;;;19.40;99.90;;;;;;5008020;28;20150;-85
2022/07/27 07:25:00;;;;;;;4.70;2.65;;;19.40;99.90;;;;;;4992428;28;20561;-86
2022/07/27 07:27:26;;;;;;;3.63;2.65;;;19.30;99.90;;;;;;4991567;28;20041;-86
2022/07/27 07:29:55;;;;;;;2.97;2.60;;;19.30;99.90;;;;;;4993927;28;20453;-86
2022/07/27 07:32:23;;;;;;;3.40;2.58;;;19.40;99.90;;;;;;5011046;28;20030;-85
2022/07/27 07:34:51;;;;;;;5.28;2.63;;;19.20;99.90;;;;;;5013785;28;20026;-86
2022/07/27 07:37:18;;;;;;;4.38;2.70;;;19.10;99.90;;;;;;4993839;28;20165;-85
2022/07/27 07:39:44;;;;;;;10.55;2.72;;;19.20;99.90;;;;;;5008800;28;20057;-85
2022/07/27 07:42:13;;;;;;;4.47;2.40;;;19.40;99.90;;;;;;5012399;28;20065;-85
2022/07/27 07:44:39;;;;;;;5.85;2.53;;;19.90;99.90;;;;;;5006880;28;20041;-85
2022/07/27 07:47:06;;;;;;;6.35;2.47;;;20.50;99.90;;;;;;4994587;28;20064;-86
2022/07/27 07:49:32;;;;;;;4.90;2.20;;;20.70;99.90;;;;;;4997201;28;20034;-86
2022/07/27 07:51:58;;;;;;;3.83;2.13;;;20.80;99.90;;;;;;5012615;28;20038;-86
2022/07/27 07:54:24;;;;;;;2.60;2.05;;;21.00;99.90;;;;;;4996087;28;20026;-85
2022/07/27 07:56:52;;;;;;;3.65;2.45;;;21.20;99.90;;;;;;5007303;28;20403;-85
2022/07/27 07:59:18;;;;;;;5.40;2.17;;;20.90;99.90;;;;;;5015028;28;20617;-87
2022/07/27 08:01:44;;;;;;;2.97;2.20;;;20.90;99.90;;;;;;5007846;28;20034;-85
2022/07/27 08:04:09;;;;;;;2.58;2.15;;;21.20;99.90;;;;;;4996951;28;20030;-86
2022/07/27 08:06:37;;;;;;;3.33;1.90;;;21.30;99.90;;;;;;5030279;28;20082;-87
2022/07/27 08:09:06;;;;;;;6.82;2.10;;;21.50;99.90;;;;;;5014392;28;20336;-86
2022/07/27 08:11:36;;;;;;;4.22;2.65;;;21.00;99.90;;;;;;4996248;28;20165;-87
2022/07/27 08:14:02;;;;;;;6.72;2.47;;;20.60;99.90;;;;;;5002004;28;20054;-85
2022/07/27 08:16:28;;;;;;;2.40;2.20;;;20.60;99.90;;;;;;4990707;28;20030;-85
2022/07/27 08:18:54;;;;;;;4.95;2.50;;;20.60;99.90;;;;;;5001760;28;20033;-84
2022/07/27 08:21:20;;;;;;;2.30;1.77;;;21.00;99.90;;;;;;5009451;28;20368;-85
2022/07/27 08:23:48;;;;;;;3.70;2.00;;;21.50;99.90;;;;;;5008548;28;20057;-84
2022/07/27 08:26:17;;;;;;;4.60;2.08;;;22.90;99.90;;;;;;5014759;28;20097;-85
2022/07/27 08:28:43;;;;;;;4.32;1.80;;;24.10;99.90;;;;;;5013486;28;20061;-85
2022/07/27 08:31:09;;;;;;;3.05;1.58;;;24.50;99.90;;;;;;5011156;28;20463;-85
2022/07/27 08:33:35;;;;;;;3.40;1.52;;;25.30;99.90;;;;;;5012324;28;20037;-85
2022/07/27 08:36:18;;;;;;;2.67;2.00;;;25.00;99.90;;;;;;5011295;28;20086;-86
2022/07/27 08:38:43;;;;;;;4.30;1.63;;;24.00;99.90;;;;;;5013748;28;20037;-86
2022/07/27 08:41:12;;;;;;;5.88;1.77;;;24.20;99.90;;;;;;4998369;28;20065;-86
2022/07/27 08:43:47;;;;;;;2.08;1.42;;;25.20;99.90;;;;;;5031192;28;20027;-86
2022/07/27 08:46:16;;;;;;;3.17;1.55;;;25.50;99.90;;;;;;5018841;28;20045;-84
2022/07/27 08:48:43;;;;;;;2.45;1.83;;;24.70;99.90;;;;;;5013971;28;20034;-85
2022/07/27 08:51:10;;;;;;;12.52;7.63;;;23.70;99.90;;;;;;5015146;28;20044;-85
2022/07/27 08:53:41;;;;;;;6.00;3.70;;;23.20;99.90;;;;;;5026895;28;20030;-86
2022/07/27 08:56:08;;;;;;;3.22;2.00;;;22.80;99.90;;;;;;5013457;28;20022;-85
2022/07/27 08:58:33;;;;;;;4.10;1.63;;;22.60;99.90;;;;;;5013675;28;20439;-85
2022/07/27 09:00:59;;;;;;;6.68;1.83;;;22.60;99.90;;;;;;5008712;28;20065;-86
2022/07/27 09:03:25;;;;;;;6.03;2.05;;;22.80;99.90;;;;;;5024354;28;20034;-87
2022/07/27 09:05:53;;;;;;;7.05;1.73;;;22.40;99.90;;;;;;5016011;28;20069;-85
2022/07/27 09:08:23;;;;;;;4.60;1.80;;;22.20;99.90;;;;;;5032496;28;20041;-87
2022/07/27 09:10:50;;;;;;;4.32;1.73;;;21.70;99.90;;;;;;5019135;28;20029;-86
2022/07/27 09:13:28;;;;;;;6.13;2.25;;;21.40;99.90;;;;;;4996276;28;20034;-86
2022/07/27 09:16:01;;;;;;;6.25;2.08;;;21.60;99.90;;;;;;5001670;28;20030;-86
2022/07/27 09:18:28;;;;;;;5.32;2.13;;;21.40;99.90;;;;;;4996634;28;20035;-85
2022/07/27 09:21:17;;;;;;;4.10;2.25;;;21.20;99.90;;;;;;4994025;28;20081;-87
2022/07/27 09:23:50;;;;;;;3.15;1.88;;;21.00;99.90;;;;;;5013466;28;20029;-87
2022/07/27 09:26:22;;;;;;;5.00;1.90;;;21.10;99.90;;;;;;5016838;28;20038;-86
2022/07/27 09:29:04;;;;;;;2.80;2.03;;;20.90;99.90;;;;;;5007132;28;20072;-85
2022/07/27 09:31:30;;;;;;;4.65;2.63;;;20.90;99.90;;;;;;4992281;28;20082;-85
2022/07/27 09:34:11;;;;;;;3.15;2.35;;;20.70;99.90;;;;;;5009274;28;20030;-84
2022/07/27 09:36:54;;;;;;;3.97;2.28;;;21.40;99.90;;;;;;5017236;28;20040;-86
2022/07/27 09:39:28;;;;;;;3.63;1.88;;;22.70;99.90;;;;;;5014596;28;20038;-85
2022/07/27 09:41:57;;;;;;;3.83;1.77;;;24.70;99.90;;;;;;5013730;28;20030;-86
2022/07/27 09:44:39;;;;;;;3.47;1.52;;;26.20;99.90;;;;;;5014268;28;20044;-85
2022/07/27 09:47:25;;;;;;;4.30;1.80;;;26.80;99.90;;;;;;5014367;28;20037;-85
2022/07/27 09:50:01;;;;;;;4.22;1.77;;;26.50;99.20;;;;;;5030446;28;20112;-86
2022/07/27 09:52:29;;;;;;;3.28;1.50;;;25.00;99.90;;;;;;5016569;28;20097;-86
2022/07/27 09:55:03;;;;;;;4.22;1.65;;;24.70;99.90;;;;;;5014451;28;20069;-85
2022/07/27 09:57:53;;;;;;;2.03;1.88;;;25.60;99.90;;;;;;5012705;28;20049;-85
2022/07/27 10:00:20;;;;;;;3.47;2.10;;;26.90;99.60;;;;;;5024241;28;20058;-86
2022/07/27 10:02:53;;;;;;;3.72;1.60;;;27.50;98.10;;;;;;5011693;28;20653;-87
2022/07/27 10:05:21;;;;;;;6.05;1.35;;;27.70;97.20;;;;;;5013640;28;20080;-86
2022/07/27 10:07:47;;;;;;;5.57;1.63;;;27.20;97.60;;;;;;5014971;28;20034;-86
2022/07/27 10:10:14;;;;;;;2.97;1.63;;;26.40;97.70;;;;;;5010305;28;20836;-86
2022/07/27 10:12:43;;;;;;;5.45;1.70;;;25.90;98.10;;;;;;4993268;28;20038;-86
2022/07/27 10:15:16;;;;;;;4.80;1.85;;;25.20;98.20;;;;;;5009540;28;20399;-86
2022/07/27 10:17:43;;;;;;;2.97;1.75;;;24.40;99.30;;;;;;5013884;28;20026;-87
2022/07/27 10:20:10;;;;;;;2.75;1.85;;;24.00;99.90;;;;;;4994216;28;20038;-85
2022/07/27 10:22:58;;;;;;;3.20;1.60;;;24.10;99.90;;;;;;5003006;28;20037;-86
2022/07/27 10:25:27;;;;;;;3.90;1.85;;;23.70;99.90;;;;;;5016201;28;20034;-87
2022/07/27 10:28:15;;;;;;;2.65;1.75;;;23.30;99.90;;;;;;5013734;28;20487;-86
2022/07/27 10:30:40;;;;;;;5.28;1.73;;;23.20;99.90;;;;;;4995047;28;20119;-86
2022/07/27 10:33:46;;;;;;;4.63;1.65;;;23.40;99.90;;;;;;5005426;28;20120;-86
2022/07/27 10:36:51;;;;;;;6.20;1.80;;;24.00;99.90;;;;;;4991535;28;20077;-85
2022/07/27 10:39:28;;;;;;;4.72;1.50;;;24.80;99.90;;;;;;5009396;28;20061;-86
2022/07/27 10:42:17;;;;;;;4.88;2.70;;;25.20;98.20;;;;;;4994396;28;20026;-86
2022/07/27 10:45:04;;;;;;;2.15;1.38;;;25.30;98.20;;;;;;5011816;28;20038;-86
2022/07/27 10:47:43;;;;;;;4.93;1.83;;;25.80;98.20;;;;;;5015612;28;20045;-86
2022/07/27 10:50:19;;;;;;;3.72;1.58;;;26.00;97.20;;;;;;5008721;28;20042;-86
2022/07/27 10:52:56;;;;;;;2.40;1.20;;;26.00;98.10;;;;;;5010563;28;20038;-86
2022/07/27 10:55:35;;;;;;;3.05;1.65;;;25.90;97.80;;;;;;5005682;28;20038;-87
2022/07/27 10:58:09;;;;;;;4.13;1.90;;;25.70;97.30;;;;;;5022755;28;20036;-86
2022/07/27 11:00:50;;;;;;;3.40;1.67;;;25.50;97.60;;;;;;5029304;28;20038;-87
2022/07/27 11:03:26;;;;;;;6.07;1.63;;;25.70;97.00;;;;;;5027034;28;20021;-86
2022/07/27 11:06:10;;;;;;;4.43;1.58;;;26.30;98.30;;;;;;5027680;28;20038;-86
2022/07/27 11:08:37;;;;;;;4.32;1.85;;;26.60;97.20;;;;;;5008030;28;20033;-86
2022/07/27 11:11:04;;;;;;;3.97;2.13;;;27.50;95.30;;;;;;5016648;28;20015;-86
2022/07/27 11:13:33;;;;;;;4.60;1.45;;;28.00;94.70;;;;;;5023713;28;20018;-87
2022/07/27 11:16:09;;;;;;;3.72;1.63;;;27.90;93.70;;;;;;5023939;28;20044;-88
2022/07/27 11:18:40;;;;;;;2.72;1.40;;;27.50;93.50;;;;;;5028262;28;20090;-85
2022/07/27 11:21:33;;;;;;;3.80;1.65;;;26.90;93.30;;;;;;5029188;28;20030;-87
2022/07/27 11:24:17;;;;;;;3.05;1.38;;;26.40;95.00;;;;;;5028753;28;20073;-87
2022/07/27 11:26:46;;;;;;;6.88;1.70;;;26.70;94.10;;;;;;5009925;28;20039;-87
2022/07/27 11:29:13;;;;;;;3.50;1.55;;;26.40;93.90;;;;;;5027598;28;20030;-86
2022/07/27 11:31:41;;;;;;;4.82;1.58;;;26.90;92.80;;;;;;4996677;28;20027;-86
2022/07/27 11:34:07;;;;;;;3.83;1.45;;;28.30;93.20;;;;;;4996818;28;20062;-85
2022/07/27 11:36:44;;;;;;;2.83;1.20;;;28.40;90.60;;;;;;5004130;28;20133;-86
2022/07/27 11:39:16;;;;;;;4.35;1.58;;;28.30;89.40;;;;;;4995775;28;20459;-88
2022/07/27 11:41:43;;;;;;;3.47;1.63;;;28.80;86.50;;;;;;5009087;28;20057;-85
2022/07/27 11:44:15;;;;;;;3.85;1.52;;;29.30;86.10;;;;;;5002499;28;20133;-85
2022/07/27 11:46:43;;;;;;;6.13;1.52;;;29.40;85.70;;;;;;4999151;28;20042;-87
2022/07/27 11:49:16;;;;;;;6.05;3.17;;;29.60;84.50;;;;;;4993534;28;20037;-86
2022/07/27 11:51:44;;;;;;;3.88;1.50;;;28.40;84.50;;;;;;5009070;28;20037;-85
2022/07/27 11:54:31;;;;;;;3.00;1.52;;;27.20;87.70;;;;;;5025312;28;20101;-85
2022/07/27 11:56:59;;;;;;;8.75;2.00;;;26.00;90.60;;;;;;5028887;28;20057;-84
2022/07/27 11:59:35;;;;;;;2.42;1.70;;;25.00;92.50;;;;;;5018986;28;20042;-86
2022/07/27 12:02:07;;;;;;;4.40;1.75;;;24.80;93.20;;;;;;5003732;28;20284;-86
2022/07/27 12:04:35;;;;;;;3.45;1.80;;;24.60;92.90;;;;;;5014216;28;20037;-85
2022/07/27 12:07:10;;;;;;;5.85;1.80;;;23.90;94.00;;;;;;5015526;28;20034;-86
2022/07/27 12:09:44;;;;;;;7.32;2.03;;;23.20;94.70;;;;;;4998187;28;20094;-86
2022/07/27 12:12:22;;;;;;;5.32;1.98;;;23.00;95.30;;;;;;5013378;28;20070;-87
2022/07/27 12:15:01;;;;;;;5.15;1.70;;;22.90;95.90;;;;;;5013632;28;20034;-87
2022/07/27 12:17:30;;;;;;;7.05;2.28;;;23.10;95.90;;;;;;4992888;28;20129;-85
2022/07/27 12:20:17;;;;;;;3.80;1.90;;;23.40;95.50;;;;;;5013713;28;20597;-86
2022/07/27 12:22:55;;;;;;;6.05;2.20;;;23.60;95.20;;;;;;5015528;28;20041;-85
2022/07/27 12:25:20;;;;;;;5.13;2.03;;;24.00;95.30;;;;;;5016852;28;20049;-84
2022/07/27 12:28:16;;;;;;;4.20;2.00;;;24.20;94.10;;;;;;5012826;28;20034;-86
2022/07/27 12:30:47;;;;;;;8.00;2.10;;;24.40;94.60;;;;;;4990915;28;20605;-86
2022/07/27 12:33:28;;;;;;;6.63;1.75;;;25.30;94.70;;;;;;5013031;28;20507;-86
2022/07/27 12:35:55;;;;;;;4.68;1.88;;;25.80;92.40;;;;;;5012988;28;20068;-87
2022/07/27 12:38:21;;;;;;;5.20;1.70;;;26.40;92.10;;;;;;5014881;28;20053;-85
2022/07/27 12:40:54;;;;;;;7.00;2.45;;;26.50;91.40;;;;;;5013917;28;20056;-86
2022/07/27 12:43:26;;;;;;;4.65;1.92;;;26.40;91.90;;;;;;5007886;28;20088;-86
2022/07/27 12:45:54;;;;;;;8.18;1.85;;;26.30;91.00;;;;;;5007023;28;20487;-85
2022/07/27 12:48:23;;;;;;;5.78;1.52;;;26.00;90.60;;;;;;5011349;28;20034;-84
2022/07/27 12:51:04;;;;;;;15.82;2.30;;;25.80;90.20;;;;;;5013067;28;20042;-87
2022/07/27 12:53:30;;;;;;;4.13;2.15;;;25.70;90.80;;;;;;5014037;28;20025;-85
2022/07/27 12:55:59;;;;;;;5.85;1.48;;;26.60;91.40;;;;;;5014601;28;20030;-85
2022/07/27 12:58:40;;;;;;;;;;;;;;;;;;;;;